This demonstration page uses our WeatherBlox Daily Observations layout. Learn more.

Left ArrowRight Arrow

Hourly Observations for December 1, 2020

Temp ( °F °C ) Dew Point ( °F °C ) Humidity (%) Winds ( mph kmh ) Pressure ( in mb ) Visibility ( mi km ) Precip ( " mm )
12:51 am 00:51 Clear 37 2.8 18 -7.8 46 46 SE 7 11 30.13 1020 10 16.0934 0 0
1:51 am 01:51 Clear 33 0.6 17 -8.3 52 52 SE 3 6 30.12 1020 10 16.0934 0 0
2:51 am 02:51 Clear 38 3.3 18 -7.8 44 44 SE 7 11 30.11 1020 10 16.0934 0 0
3:51 am 03:51 Clear 33 0.6 18 -7.8 54 54 SSE 7 11 30.09 1019 10 16.0934 0 0
4:51 am 04:51 Clear 30 -1.1 16 -8.9 56 56 Calm 30.11 1020 10 16.0934 0 0
5:51 am 05:51 Clear 27 -2.8 15 -9.4 61 61 NW 6 9 30.12 1020 10 16.0934 0 0
6:51 am 06:51 Clear 27 -2.8 15 -9.4 61 61 N 3 6 30.15 1021 10 16.0934 0 0
7:51 am 07:51 Sunny 29 -1.7 14 -10 54 54 Calm 30.16 1022 10 16.0934 0 0
8:51 am 08:51 Sunny 36 2.2 18 -7.8 48 48 Calm 30.16 1021 10 16.0934 0 0
9:51 am 09:51 Sunny 41 5 19 -7.2 41 41 Calm 30.14 1021 10 16.0934 0 0
10:51 am 10:51 Sunny 48 8.9 21 -6.1 34 34 Calm 30.1 1019 10 16.0934 0 0
11:51 am 11:51 Sunny 52 11.1 21 -6.1 30 30 W 7 11 30.05 1018 10 16.0934 0 0
12:51 pm 12:51 Sunny 56 13.3 22 -5.6 27 27 WNW 9 15 30 1016 10 16.0934 0 0
1:51 pm 13:51 Sunny 60 15.6 22 -5.6 23 23 WNW 12 19 29.97 1015 10 16.0934 0 0
2:51 pm 14:51 Sunny 63 17.2 19 -7.2 18 18 NW 17 28 29.91 1013 10 16.0934 0 0
3:51 pm 15:51 Sunny 65 18.3 17 -8.3 16 16 WNW 20 31 29.9 1013 10 16.0934 0 0
4:51 pm 16:51 Sunny 64 17.8 14 -10 14 14 NW 15 24 29.91 1013 10 16.0934 0 0
5:51 pm 17:51 Clear 60 15.6 15 -9.4 17 17 NW 15 24 29.95 1014 10 16.0934 0 0
6:51 pm 18:51 Clear 57 13.9 15 -9.4 19 19 WNW 17 28 29.97 1015 10 16.0934 0 0
7:51 pm 19:51 Clear 53 11.7 10 -12.2 18 18 WNW 13 20 30 1016 10 16.0934 0 0
8:51 pm 20:51 Clear 52 11.1 9 -12.8 17 17 WNW 18 30 30 1016 10 16.0934 0 0
9:51 pm 21:51 Clear 51 10.6 9 -12.8 18 18 WNW 18 30 30.01 1016 10 16.0934 0 0
10:51 pm 22:51 Clear 51 10.6 10 -12.2 19 19 WNW 12 19 30.01 1016 10 16.0934 0 0
11:51 pm 23:51 Clear 48 8.9 10 -12.2 21 21 NW 7 11 30.03 1017 10 16.0934 0 0

Powered by AerisWeather